Albany Township, Maine
Current Conditions -  °F | °C
As of 8:52 PM on Wednesday 26 Nov 2014 (Local Time) from KBML Reporting Station
Light Snow Light Snow  
Wind Chill: 21°   Ceiling: 1100
Heat Index: 30°   Visibility: 0.75mi
Dew Point: 26°   Wind: 10mph
Humidity: 85%   Direction: 350°N
Pressure: 29.89"   Gusts: NA
Location:  44.3718°N, 70.8421°W
Report Text: KBML 270152Z AUTO 35009KT 3/4SM -SN BR VV011 M01/M03 A2989 RMK AO2 SLP135 P0004 T10111033
Loading
Personal Weather Stations






























Interactive Weather Map New forecast layout! Learn more

10-Day Weather Forecast

Advertisements
Track Severe Weather on mobile